sensor_id;sensor_type;location;lat;lon;timestamp;temperature;humidity
64599;SHT31;51008;51.504;11.548;2022-12-29T00:04:00;8.77;82.55
64599;SHT31;51008;51.504;11.548;2022-12-29T00:09:01;8.94;82.13
64599;SHT31;51008;51.504;11.548;2022-12-29T00:14:02;9.04;81.85
64599;SHT31;51008;51.504;11.548;2022-12-29T00:19:04;9.00;82.38
64599;SHT31;51008;51.504;11.548;2022-12-29T00:24:06;8.96;82.50
64599;SHT31;51008;51.504;11.548;2022-12-29T00:29:10;9.03;81.90
64599;SHT31;51008;51.504;11.548;2022-12-29T00:34:11;9.01;81.76
64599;SHT31;51008;51.504;11.548;2022-12-29T00:39:15;8.96;83.00
64599;SHT31;51008;51.504;11.548;2022-12-29T00:44:17;9.03;82.35
64599;SHT31;51008;51.504;11.548;2022-12-29T00:49:19;9.13;81.54
64599;SHT31;51008;51.504;11.548;2022-12-29T00:54:20;9.00;83.09
64599;SHT31;51008;51.504;11.548;2022-12-29T00:59:21;9.01;82.85
64599;SHT31;51008;51.504;11.548;2022-12-29T01:04:24;9.10;81.91
64599;SHT31;51008;51.504;11.548;2022-12-29T01:09:25;9.08;82.25
64599;SHT31;51008;51.504;11.548;2022-12-29T01:14:27;9.14;81.91
64599;SHT31;51008;51.504;11.548;2022-12-29T01:19:28;9.20;81.77
64599;SHT31;51008;51.504;11.548;2022-12-29T01:24:30;9.23;81.99
64599;SHT31;51008;51.504;11.548;2022-12-29T01:29:32;9.20;81.82
64599;SHT31;51008;51.504;11.548;2022-12-29T01:34:33;9.24;82.09
64599;SHT31;51008;51.504;11.548;2022-12-29T01:39:34;9.21;82.30
64599;SHT31;51008;51.504;11.548;2022-12-29T01:44:53;9.20;82.78
64599;SHT31;51008;51.504;11.548;2022-12-29T01:49:57;9.14;83.01
64599;SHT31;51008;51.504;11.548;2022-12-29T01:55:00;9.11;83.16
64599;SHT31;51008;51.504;11.548;2022-12-29T02:00:10;9.13;82.96
64599;SHT31;51008;51.504;11.548;2022-12-29T02:05:25;9.23;82.60
64599;SHT31;51008;51.504;11.548;2022-12-29T02:10:30;9.20;83.12
64599;SHT31;51008;51.504;11.548;2022-12-29T02:26:34;9.34;83.18
64599;SHT31;51008;51.504;11.548;2022-12-29T02:32:10;9.39;82.95
64599;SHT31;51008;51.504;11.548;2022-12-29T02:48:09;9.38;83.82
64599;SHT31;51008;51.504;11.548;2022-12-29T02:53:15;9.39;83.43
64599;SHT31;51008;51.504;11.548;2022-12-29T02:58:20;9.44;83.22
64599;SHT31;51008;51.504;11.548;2022-12-29T03:13:59;9.46;83.66
64599;SHT31;51008;51.504;11.548;2022-12-29T03:19:08;9.46;83.82
64599;SHT31;51008;51.504;11.548;2022-12-29T03:24:11;9.46;84.21
64599;SHT31;51008;51.504;11.548;2022-12-29T03:29:15;9.48;84.21
64599;SHT31;51008;51.504;11.548;2022-12-29T03:34:20;9.53;84.39
64599;SHT31;51008;51.504;11.548;2022-12-29T03:39:23;9.58;84.65
64599;SHT31;51008;51.504;11.548;2022-12-29T03:44:53;9.63;84.71
64599;SHT31;51008;51.504;11.548;2022-12-29T03:49:55;9.73;84.77
64599;SHT31;51008;51.504;11.548;2022-12-29T03:54:57;9.75;85.05
64599;SHT31;51008;51.504;11.548;2022-12-29T03:59:58;9.75;85.06
64599;SHT31;51008;51.504;11.548;2022-12-29T04:04:59;9.78;84.52
64599;SHT31;51008;51.504;11.548;2022-12-29T04:10:00;9.87;83.86
64599;SHT31;51008;51.504;11.548;2022-12-29T04:15:03;9.89;83.99
64599;SHT31;51008;51.504;11.548;2022-12-29T04:20:05;9.89;84.39
64599;SHT31;51008;51.504;11.548;2022-12-29T04:25:07;9.91;84.33
64599;SHT31;51008;51.504;11.548;2022-12-29T04:30:09;9.83;84.59
64599;SHT31;51008;51.504;11.548;2022-12-29T04:35:21;9.79;85.00
64599;SHT31;51008;51.504;11.548;2022-12-29T04:40:23;9.80;85.27
64599;SHT31;51008;51.504;11.548;2022-12-29T04:45:24;9.76;85.49
64599;SHT31;51008;51.504;11.548;2022-12-29T04:50:32;9.76;85.72
64599;SHT31;51008;51.504;11.548;2022-12-29T04:55:50;9.72;85.98
64599;SHT31;51008;51.504;11.548;2022-12-29T05:00:52;9.79;85.80
64599;SHT31;51008;51.504;11.548;2022-12-29T05:05:56;9.78;85.93
64599;SHT31;51008;51.504;11.548;2022-12-29T05:10:57;9.86;85.64
64599;SHT31;51008;51.504;11.548;2022-12-29T05:15:58;9.80;86.03
64599;SHT31;51008;51.504;11.548;2022-12-29T05:21:00;9.79;85.97
64599;SHT31;51008;51.504;11.548;2022-12-29T05:26:02;9.82;85.92
64599;SHT31;51008;51.504;11.548;2022-12-29T05:31:10;9.82;86.02
64599;SHT31;51008;51.504;11.548;2022-12-29T05:36:12;9.96;85.35
64599;SHT31;51008;51.504;11.548;2022-12-29T05:41:18;9.96;85.49
64599;SHT31;51008;51.504;11.548;2022-12-29T05:46:34;10.06;84.71
64599;SHT31;51008;51.504;11.548;2022-12-29T05:51:58;10.14;84.61
64599;SHT31;51008;51.504;11.548;2022-12-29T05:56:59;10.15;84.50
64599;SHT31;51008;51.504;11.548;2022-12-29T06:02:00;10.14;84.62
64599;SHT31;51008;51.504;11.548;2022-12-29T06:07:02;10.17;84.39
64599;SHT31;51008;51.504;11.548;2022-12-29T06:12:13;10.15;84.59
64599;SHT31;51008;51.504;11.548;2022-12-29T06:17:17;10.22;84.38
64599;SHT31;51008;51.504;11.548;2022-12-29T06:22:18;10.28;84.24
64599;SHT31;51008;51.504;11.548;2022-12-29T06:27:19;10.25;84.32
64599;SHT31;51008;51.504;11.548;2022-12-29T06:32:23;10.30;84.34
64599;SHT31;51008;51.504;11.548;2022-12-29T06:37:27;10.31;84.45
64599;SHT31;51008;51.504;11.548;2022-12-29T06:42:28;10.30;84.35
64599;SHT31;51008;51.504;11.548;2022-12-29T06:48:04;10.30;84.51
64599;SHT31;51008;51.504;11.548;2022-12-29T06:53:05;10.31;84.51
64599;SHT31;51008;51.504;11.548;2022-12-29T06:58:06;10.31;84.63
64599;SHT31;51008;51.504;11.548;2022-12-29T07:03:07;10.35;84.42
64599;SHT31;51008;51.504;11.548;2022-12-29T07:08:08;10.37;84.48
64599;SHT31;51008;51.504;11.548;2022-12-29T07:13:09;10.39;84.06
64599;SHT31;51008;51.504;11.548;2022-12-29T07:18:10;10.30;84.43
64599;SHT31;51008;51.504;11.548;2022-12-29T07:23:12;10.21;84.63
64599;SHT31;51008;51.504;11.548;2022-12-29T07:28:13;10.07;84.96
64599;SHT31;51008;51.504;11.548;2022-12-29T07:33:14;9.97;85.20
64599;SHT31;51008;51.504;11.548;2022-12-29T07:38:15;10.10;85.02
64599;SHT31;51008;51.504;11.548;2022-12-29T07:43:16;10.14;84.87
64599;SHT31;51008;51.504;11.548;2022-12-29T07:48:37;10.22;84.67
64599;SHT31;51008;51.504;11.548;2022-12-29T07:53:38;10.22;84.91
64599;SHT31;51008;51.504;11.548;2022-12-29T07:58:39;10.28;84.76
64599;SHT31;51008;51.504;11.548;2022-12-29T08:03:40;10.28;84.99
64599;SHT31;51008;51.504;11.548;2022-12-29T08:08:41;10.41;84.63
64599;SHT31;51008;51.504;11.548;2022-12-29T08:13:42;10.55;84.27
64599;SHT31;51008;51.504;11.548;2022-12-29T08:18:44;10.66;83.78
64599;SHT31;51008;51.504;11.548;2022-12-29T08:23:45;10.69;83.92
64599;SHT31;51008;51.504;11.548;2022-12-29T08:28:46;10.84;83.17
64599;SHT31;51008;51.504;11.548;2022-12-29T08:33:47;10.84;83.20
64599;SHT31;51008;51.504;11.548;2022-12-29T08:38:48;11.00;82.78
64599;SHT31;51008;51.504;11.548;2022-12-29T08:43:49;11.07;82.56
64599;SHT31;51008;51.504;11.548;2022-12-29T08:48:51;11.07;82.44
64599;SHT31;51008;51.504;11.548;2022-12-29T08:53:52;11.12;82.37
64599;SHT31;51008;51.504;11.548;2022-12-29T08:58:53;11.18;82.24
64599;SHT31;51008;51.504;11.548;2022-12-29T09:03:56;11.21;82.27
64599;SHT31;51008;51.504;11.548;2022-12-29T09:08:57;11.73;80.69
64599;SHT31;51008;51.504;11.548;2022-12-29T09:13:58;11.51;81.08
64599;SHT31;51008;51.504;11.548;2022-12-29T09:19:00;11.42;81.32
64599;SHT31;51008;51.504;11.548;2022-12-29T09:24:01;11.45;81.51
64599;SHT31;51008;51.504;11.548;2022-12-29T09:29:02;11.40;82.35
64599;SHT31;51008;51.504;11.548;2022-12-29T09:34:03;11.40;82.22
64599;SHT31;51008;51.504;11.548;2022-12-29T09:39:04;11.45;81.84
64599;SHT31;51008;51.504;11.548;2022-12-29T09:44:20;11.40;81.49
64599;SHT31;51008;51.504;11.548;2022-12-29T09:59:57;11.46;81.31
64599;SHT31;51008;51.504;11.548;2022-12-29T10:04:59;11.51;81.38
64599;SHT31;51008;51.504;11.548;2022-12-29T10:10:12;11.55;80.88
64599;SHT31;51008;51.504;11.548;2022-12-29T10:20:35;11.62;81.35
64599;SHT31;51008;51.504;11.548;2022-12-29T10:25:40;11.45;83.56
64599;SHT31;51008;51.504;11.548;2022-12-29T10:30:43;11.43;83.61
64599;SHT31;51008;51.504;11.548;2022-12-29T10:35:46;11.39;84.26
64599;SHT31;51008;51.504;11.548;2022-12-29T10:45:58;11.21;85.87
64599;SHT31;51008;51.504;11.548;2022-12-29T10:51:02;11.24;86.30
64599;SHT31;51008;51.504;11.548;2022-12-29T10:56:18;11.40;85.75
64599;SHT31;51008;51.504;11.548;2022-12-29T11:01:30;11.73;85.89
64599;SHT31;51008;51.504;11.548;2022-12-29T11:06:33;11.65;85.64
64599;SHT31;51008;51.504;11.548;2022-12-29T11:11:35;11.72;85.74
64599;SHT31;51008;51.504;11.548;2022-12-29T11:16:36;11.81;83.93
64599;SHT31;51008;51.504;11.548;2022-12-29T11:21:38;11.94;82.49
64599;SHT31;51008;51.504;11.548;2022-12-29T11:26:39;12.07;82.38
64599;SHT31;51008;51.504;11.548;2022-12-29T11:31:45;12.11;82.07
64599;SHT31;51008;51.504;11.548;2022-12-29T11:36:49;12.39;80.69
64599;SHT31;51008;51.504;11.548;2022-12-29T11:41:52;12.52;79.87
64599;SHT31;51008;51.504;11.548;2022-12-29T11:46:54;12.49;79.42
64599;SHT31;51008;51.504;11.548;2022-12-29T11:51:55;12.38;79.22
64599;SHT31;51008;51.504;11.548;2022-12-29T11:56:57;12.41;79.11
64599;SHT31;51008;51.504;11.548;2022-12-29T12:02:26;12.20;79.58
64599;SHT31;51008;51.504;11.548;2022-12-29T12:07:34;12.07;79.50
64599;SHT31;51008;51.504;11.548;2022-12-29T12:12:43;12.02;78.94
64599;SHT31;51008;51.504;11.548;2022-12-29T12:17:53;12.04;78.79
64599;SHT31;51008;51.504;11.548;2022-12-29T12:28:34;12.36;79.13
64599;SHT31;51008;51.504;11.548;2022-12-29T12:33:41;12.50;79.50
64599;SHT31;51008;51.504;11.548;2022-12-29T12:49:44;12.17;80.75
64599;SHT31;51008;51.504;11.548;2022-12-29T12:55:21;12.07;81.11
64599;SHT31;51008;51.504;11.548;2022-12-29T13:00:27;12.01;80.98
64599;SHT31;51008;51.504;11.548;2022-12-29T13:17:12;12.32;78.95
64599;SHT31;51008;51.504;11.548;2022-12-29T13:22:42;12.25;79.08
64599;SHT31;51008;51.504;11.548;2022-12-29T13:28:11;12.29;78.29
64599;SHT31;51008;51.504;11.548;2022-12-29T13:33:28;12.18;78.45
64599;SHT31;51008;51.504;11.548;2022-12-29T13:38:36;12.14;78.91
64599;SHT31;51008;51.504;11.548;2022-12-29T13:43:40;12.17;78.70
64599;SHT31;51008;51.504;11.548;2022-12-29T13:48:53;12.07;79.12
64599;SHT31;51008;51.504;11.548;2022-12-29T13:59:46;11.94;79.20
64599;SHT31;51008;51.504;11.548;2022-12-29T14:10:32;11.87;78.42
64599;SHT31;51008;51.504;11.548;2022-12-29T14:15:38;11.79;78.39
64599;SHT31;51008;51.504;11.548;2022-12-29T14:36:24;11.31;77.74
64599;SHT31;51008;51.504;11.548;2022-12-29T14:41:32;11.11;78.44
64599;SHT31;51008;51.504;11.548;2022-12-29T14:51:52;10.87;78.29
64599;SHT31;51008;51.504;11.548;2022-12-29T14:56:58;10.89;78.01
64599;SHT31;51008;51.504;11.548;2022-12-29T15:02:03;10.86;77.96
64599;SHT31;51008;51.504;11.548;2022-12-29T15:07:09;10.79;78.52
64599;SHT31;51008;51.504;11.548;2022-12-29T15:12:39;10.70;79.62
64599;SHT31;51008;51.504;11.548;2022-12-29T15:17:41;10.60;81.39
64599;SHT31;51008;51.504;11.548;2022-12-29T15:22:45;10.49;82.76
64599;SHT31;51008;51.504;11.548;2022-12-29T15:28:02;10.37;83.09
64599;SHT31;51008;51.504;11.548;2022-12-29T15:33:18;10.24;83.47
64599;SHT31;51008;51.504;11.548;2022-12-29T15:38:25;10.13;83.73
64599;SHT31;51008;51.504;11.548;2022-12-29T15:48:55;10.11;82.58
64599;SHT31;51008;51.504;11.548;2022-12-29T15:53:57;10.03;83.03
64599;SHT31;51008;51.504;11.548;2022-12-29T15:58:59;10.01;82.74
64599;SHT31;51008;51.504;11.548;2022-12-29T16:04:04;10.01;82.55
64599;SHT31;51008;51.504;11.548;2022-12-29T16:09:28;9.96;82.25
64599;SHT31;51008;51.504;11.548;2022-12-29T16:14:34;9.87;82.48
64599;SHT31;51008;51.504;11.548;2022-12-29T16:19:40;9.82;82.48
64599;SHT31;51008;51.504;11.548;2022-12-29T16:24:42;9.79;81.39
64599;SHT31;51008;51.504;11.548;2022-12-29T16:29:43;9.86;79.87
64599;SHT31;51008;51.504;11.548;2022-12-29T16:34:44;9.87;79.64
64599;SHT31;51008;51.504;11.548;2022-12-29T16:39:46;9.85;79.17
64599;SHT31;51008;51.504;11.548;2022-12-29T16:44:47;9.79;79.53
64599;SHT31;51008;51.504;11.548;2022-12-29T16:49:50;9.76;79.08
64599;SHT31;51008;51.504;11.548;2022-12-29T16:54:57;9.75;79.05
64599;SHT31;51008;51.504;11.548;2022-12-29T17:00:02;9.73;78.83
64599;SHT31;51008;51.504;11.548;2022-12-29T17:05:03;9.75;78.36
64599;SHT31;51008;51.504;11.548;2022-12-29T17:10:05;9.79;77.57
64599;SHT31;51008;51.504;11.548;2022-12-29T17:15:26;9.75;77.45
64599;SHT31;51008;51.504;11.548;2022-12-29T17:20:29;9.68;77.58
64599;SHT31;51008;51.504;11.548;2022-12-29T17:25:35;9.61;77.80
64599;SHT31;51008;51.504;11.548;2022-12-29T17:30:39;9.59;78.12
64599;SHT31;51008;51.504;11.548;2022-12-29T17:35:40;9.49;78.78
64599;SHT31;51008;51.504;11.548;2022-12-29T17:40:41;9.36;79.70
64599;SHT31;51008;51.504;11.548;2022-12-29T17:45:43;9.32;80.10
64599;SHT31;51008;51.504;11.548;2022-12-29T17:50:47;9.23;80.55
64599;SHT31;51008;51.504;11.548;2022-12-29T17:55:50;9.17;80.94
64599;SHT31;51008;51.504;11.548;2022-12-29T18:00:57;9.01;81.41
64599;SHT31;51008;51.504;11.548;2022-12-29T18:05:59;8.96;81.92
64599;SHT31;51008;51.504;11.548;2022-12-29T18:11:01;8.84;82.08
64599;SHT31;51008;51.504;11.548;2022-12-29T18:16:02;8.89;82.03
64599;SHT31;51008;51.504;11.548;2022-12-29T18:21:03;8.90;81.91
64599;SHT31;51008;51.504;11.548;2022-12-29T18:26:26;8.87;82.01
64599;SHT31;51008;51.504;11.548;2022-12-29T18:31:30;8.82;82.39
64599;SHT31;51008;51.504;11.548;2022-12-29T18:36:32;8.79;82.54
64599;SHT31;51008;51.504;11.548;2022-12-29T18:41:33;8.76;82.72
64599;SHT31;51008;51.504;11.548;2022-12-29T18:46:34;8.69;83.07
64599;SHT31;51008;51.504;11.548;2022-12-29T18:51:35;8.71;82.91
64599;SHT31;51008;51.504;11.548;2022-12-29T18:56:36;8.64;83.07
64599;SHT31;51008;51.504;11.548;2022-12-29T19:01:37;8.36;83.99
64599;SHT31;51008;51.504;11.548;2022-12-29T19:06:38;8.36;83.76
64599;SHT31;51008;51.504;11.548;2022-12-29T19:11:39;8.28;83.55
64599;SHT31;51008;51.504;11.548;2022-12-29T19:16:40;8.23;83.13
64599;SHT31;51008;51.504;11.548;2022-12-29T19:21:45;8.21;82.56
64599;SHT31;51008;51.504;11.548;2022-12-29T19:26:46;8.14;82.33
64599;SHT31;51008;51.504;11.548;2022-12-29T19:31:47;8.17;81.82
64599;SHT31;51008;51.504;11.548;2022-12-29T19:36:48;8.13;81.48
64599;SHT31;51008;51.504;11.548;2022-12-29T19:41:49;8.10;80.96
64599;SHT31;51008;51.504;11.548;2022-12-29T19:46:50;8.11;80.36
64599;SHT31;51008;51.504;11.548;2022-12-29T19:51:51;8.13;80.19
64599;SHT31;51008;51.504;11.548;2022-12-29T19:56:52;7.99;80.72
64599;SHT31;51008;51.504;11.548;2022-12-29T20:01:53;7.93;80.84
64599;SHT31;51008;51.504;11.548;2022-12-29T20:06:54;7.87;80.86
64599;SHT31;51008;51.504;11.548;2022-12-29T20:11:55;7.82;80.45
64599;SHT31;51008;51.504;11.548;2022-12-29T20:16:56;7.78;80.45
64599;SHT31;51008;51.504;11.548;2022-12-29T20:21:58;7.68;80.72
64599;SHT31;51008;51.504;11.548;2022-12-29T20:26:59;7.67;80.52
64599;SHT31;51008;51.504;11.548;2022-12-29T20:32:01;7.54;81.11
64599;SHT31;51008;51.504;11.548;2022-12-29T20:37:02;7.54;81.21
64599;SHT31;51008;51.504;11.548;2022-12-29T20:42:04;7.61;81.15
64599;SHT31;51008;51.504;11.548;2022-12-29T20:47:05;7.72;80.63
64599;SHT31;51008;51.504;11.548;2022-12-29T20:52:06;7.71;80.68
64599;SHT31;51008;51.504;11.548;2022-12-29T20:57:07;7.59;81.43
64599;SHT31;51008;51.504;11.548;2022-12-29T21:02:19;7.41;82.79
64599;SHT31;51008;51.504;11.548;2022-12-29T21:07:20;7.50;83.32
64599;SHT31;51008;51.504;11.548;2022-12-29T21:12:21;7.58;83.56
64599;SHT31;51008;51.504;11.548;2022-12-29T21:17:22;7.65;84.45
64599;SHT31;51008;51.504;11.548;2022-12-29T21:22:23;7.68;85.17
64599;SHT31;51008;51.504;11.548;2022-12-29T21:27:24;7.61;85.87
64599;SHT31;51008;51.504;11.548;2022-12-29T21:32:25;7.55;86.29
64599;SHT31;51008;51.504;11.548;2022-12-29T21:37:27;7.51;86.48
64599;SHT31;51008;51.504;11.548;2022-12-29T21:42:28;7.44;86.43
64599;SHT31;51008;51.504;11.548;2022-12-29T21:47:32;7.44;86.13
64599;SHT31;51008;51.504;11.548;2022-12-29T21:52:33;7.44;85.52
64599;SHT31;51008;51.504;11.548;2022-12-29T21:57:35;7.41;84.96
64599;SHT31;51008;51.504;11.548;2022-12-29T22:02:36;7.44;84.34
64599;SHT31;51008;51.504;11.548;2022-12-29T22:07:37;7.54;83.59
64599;SHT31;51008;51.504;11.548;2022-12-29T22:12:39;7.54;83.48
64599;SHT31;51008;51.504;11.548;2022-12-29T22:17:44;7.44;83.74
64599;SHT31;51008;51.504;11.548;2022-12-29T22:22:46;7.22;84.65
64599;SHT31;51008;51.504;11.548;2022-12-29T22:27:48;7.05;85.19
64599;SHT31;51008;51.504;11.548;2022-12-29T22:32:50;6.93;85.39
64599;SHT31;51008;51.504;11.548;2022-12-29T22:37:51;6.97;85.11
64599;SHT31;51008;51.504;11.548;2022-12-29T22:42:52;7.02;84.70
64599;SHT31;51008;51.504;11.548;2022-12-29T22:47:53;7.09;84.39
64599;SHT31;51008;51.504;11.548;2022-12-29T22:52:54;6.99;84.97
64599;SHT31;51008;51.504;11.548;2022-12-29T22:57:56;6.96;85.31
64599;SHT31;51008;51.504;11.548;2022-12-29T23:02:57;6.89;85.69
64599;SHT31;51008;51.504;11.548;2022-12-29T23:07:59;6.79;86.66
64599;SHT31;51008;51.504;11.548;2022-12-29T23:13:03;6.81;87.08
64599;SHT31;51008;51.504;11.548;2022-12-29T23:18:04;6.79;87.15
64599;SHT31;51008;51.504;11.548;2022-12-29T23:23:05;6.78;87.38
64599;SHT31;51008;51.504;11.548;2022-12-29T23:28:07;6.75;87.32
64599;SHT31;51008;51.504;11.548;2022-12-29T23:33:08;6.74;87.24
64599;SHT31;51008;51.504;11.548;2022-12-29T23:38:09;6.64;87.41
64599;SHT31;51008;51.504;11.548;2022-12-29T23:43:10;6.60;87.15
64599;SHT31;51008;51.504;11.548;2022-12-29T23:48:11;6.63;87.05
64599;SHT31;51008;51.504;11.548;2022-12-29T23:53:13;6.55;87.27
64599;SHT31;51008;51.504;11.548;2022-12-29T23:58:14;6.54;87.46
